sensor_id;sensor_type;location;lat;lon;timestamp;pressure;altitude;pressure_sealevel;temperature;humidity
4617;BME280;2321;42.704;23.384;2023-04-30T00:01:25;95157.00;;;12.11;nan
4617;BME280;2321;42.704;23.384;2023-04-30T00:03:52;95150.03;;;12.10;nan
4617;BME280;2321;42.704;23.384;2023-04-30T00:06:20;95153.09;;;12.07;nan
4617;BME280;2321;42.704;23.384;2023-04-30T00:08:47;95157.84;;;12.05;nan
4617;BME280;2321;42.704;23.384;2023-04-30T00:11:13;95153.94;;;12.01;nan
4617;BME280;2321;42.704;23.384;2023-04-30T00:13:40;95164.19;;;11.97;nan
4617;BME280;2321;42.704;23.384;2023-04-30T00:16:07;95148.59;;;11.94;nan
4617;BME280;2321;42.704;23.384;2023-04-30T00:18:35;95149.84;;;11.84;nan
4617;BME280;2321;42.704;23.384;2023-04-30T00:21:02;95146.16;;;11.79;nan
4617;BME280;2321;42.704;23.384;2023-04-30T00:23:30;95146.97;;;11.72;nan
4617;BME280;2321;42.704;23.384;2023-04-30T00:25:57;95148.63;;;11.73;nan
4617;BME280;2321;42.704;23.384;2023-04-30T00:28:24;95141.03;;;11.70;nan
4617;BME280;2321;42.704;23.384;2023-04-30T00:30:51;95149.22;;;11.69;nan
4617;BME280;2321;42.704;23.384;2023-04-30T00:33:18;95150.28;;;11.68;nan
4617;BME280;2321;42.704;23.384;2023-04-30T00:35:44;95154.38;;;11.63;nan
4617;BME280;2321;42.704;23.384;2023-04-30T00:38:11;95155.59;;;11.61;nan
4617;BME280;2321;42.704;23.384;2023-04-30T00:40:40;95163.41;;;11.55;nan
4617;BME280;2321;42.704;23.384;2023-04-30T00:43:07;95161.75;;;11.54;nan
4617;BME280;2321;42.704;23.384;2023-04-30T00:45:34;95146.13;;;11.44;nan
4617;BME280;2321;42.704;23.384;2023-04-30T00:48:01;95150.66;;;11.44;nan
4617;BME280;2321;42.704;23.384;2023-04-30T00:50:28;95153.53;;;11.42;nan
4617;BME280;2321;42.704;23.384;2023-04-30T00:52:55;95148.59;;;11.39;nan
4617;BME280;2321;42.704;23.384;2023-04-30T00:55:24;95149.22;;;11.35;nan
4617;BME280;2321;42.704;23.384;2023-04-30T00:57:52;95150.66;;;11.30;nan
4617;BME280;2321;42.704;23.384;2023-04-30T01:00:20;95147.78;;;11.25;nan
4617;BME280;2321;42.704;23.384;2023-04-30T01:02:47;95147.97;;;11.24;nan
4617;BME280;2321;42.704;23.384;2023-04-30T01:05:14;95144.88;;;11.20;nan
4617;BME280;2321;42.704;23.384;2023-04-30T01:07:41;95144.47;;;11.16;nan
4617;BME280;2321;42.704;23.384;2023-04-30T01:10:11;95147.13;;;11.09;nan
4617;BME280;2321;42.704;23.384;2023-04-30T01:12:44;95146.91;;;11.04;nan
4617;BME280;2321;42.704;23.384;2023-04-30T01:15:19;95139.91;;;10.96;nan
4617;BME280;2321;42.704;23.384;2023-04-30T01:17:54;95150.56;;;10.96;nan
4617;BME280;2321;42.704;23.384;2023-04-30T01:20:22;95150.97;;;10.93;nan
4617;BME280;2321;42.704;23.384;2023-04-30T01:22:53;95157.09;;;10.87;nan
4617;BME280;2321;42.704;23.384;2023-04-30T01:25:42;95153.00;;;10.84;nan
4617;BME280;2321;42.704;23.384;2023-04-30T01:28:13;95143.16;;;10.78;nan
4617;BME280;2321;42.704;23.384;2023-04-30T01:30:41;95148.25;;;10.73;nan
4617;BME280;2321;42.704;23.384;2023-04-30T01:33:10;95147.63;;;10.71;nan
4617;BME280;2321;42.704;23.384;2023-04-30T01:38:39;95154.78;;;10.63;nan
4617;BME280;2321;42.704;23.384;2023-04-30T01:41:20;95148.41;;;10.57;nan
4617;BME280;2321;42.704;23.384;2023-04-30T01:44:01;95146.75;;;10.56;nan
4617;BME280;2321;42.704;23.384;2023-04-30T01:46:32;95143.66;;;10.53;nan
4617;BME280;2321;42.704;23.384;2023-04-30T01:49:07;95148.91;;;10.46;nan
4617;BME280;2321;42.704;23.384;2023-04-30T01:51:40;95149.94;;;10.45;nan
4617;BME280;2321;42.704;23.384;2023-04-30T01:54:15;95141.31;;;10.43;nan
4617;BME280;2321;42.704;23.384;2023-04-30T01:56:46;95137.41;;;10.32;nan
4617;BME280;2321;42.704;23.384;2023-04-30T01:59:18;95147.44;;;10.37;nan
4617;BME280;2321;42.704;23.384;2023-04-30T02:01:45;95139.06;;;10.40;nan
4617;BME280;2321;42.704;23.384;2023-04-30T02:04:12;95139.28;;;10.38;nan
4617;BME280;2321;42.704;23.384;2023-04-30T02:06:39;95143.34;;;10.34;nan
4617;BME280;2321;42.704;23.384;2023-04-30T02:09:06;95141.72;;;10.33;nan
4617;BME280;2321;42.704;23.384;2023-04-30T02:11:35;95147.03;;;10.33;nan
4617;BME280;2321;42.704;23.384;2023-04-30T02:14:01;95148.69;;;10.41;nan
4617;BME280;2321;42.704;23.384;2023-04-30T02:16:30;95142.94;;;10.37;nan
4617;BME280;2321;42.704;23.384;2023-04-30T02:18:56;95140.28;;;10.37;nan
4617;BME280;2321;42.704;23.384;2023-04-30T02:21:23;95144.78;;;10.37;nan
4617;BME280;2321;42.704;23.384;2023-04-30T02:23:51;95138.03;;;10.41;nan
4617;BME280;2321;42.704;23.384;2023-04-30T02:26:18;95139.88;;;10.40;nan
4617;BME280;2321;42.704;23.384;2023-04-30T02:28:45;95146.25;;;10.39;nan
4617;BME280;2321;42.704;23.384;2023-04-30T02:31:12;95142.75;;;10.39;nan
4617;BME280;2321;42.704;23.384;2023-04-30T02:33:40;95135.78;;;10.38;nan
4617;BME280;2321;42.704;23.384;2023-04-30T02:36:07;95139.66;;;10.35;nan
4617;BME280;2321;42.704;23.384;2023-04-30T02:38:34;95138.00;;;10.34;nan
4617;BME280;2321;42.704;23.384;2023-04-30T02:41:01;95140.28;;;10.30;nan
4617;BME280;2321;42.704;23.384;2023-04-30T02:43:27;95143.31;;;10.27;nan
4617;BME280;2321;42.704;23.384;2023-04-30T02:45:54;95145.97;;;10.27;nan
4617;BME280;2321;42.704;23.384;2023-04-30T02:48:21;95143.31;;;10.27;nan
4617;BME280;2321;42.704;23.384;2023-04-30T02:50:49;95143.50;;;10.26;nan
4617;BME280;2321;42.704;23.384;2023-04-30T02:53:16;95154.97;;;10.26;nan
4617;BME280;2321;42.704;23.384;2023-04-30T02:55:43;95156.19;;;10.23;nan
4617;BME280;2321;42.704;23.384;2023-04-30T02:58:10;95156.19;;;10.23;nan
4617;BME280;2321;42.704;23.384;2023-04-30T03:00:38;95130.09;;;10.12;nan
4617;BME280;2321;42.704;23.384;2023-04-30T03:03:04;95157.41;;;10.28;nan
4617;BME280;2321;42.704;23.384;2023-04-30T03:05:31;95162.56;;;10.29;nan
4617;BME280;2321;42.704;23.384;2023-04-30T03:07:59;95159.69;;;10.31;nan
4617;BME280;2321;42.704;23.384;2023-04-30T03:10:26;95157.69;;;10.33;nan
4617;BME280;2321;42.704;23.384;2023-04-30T03:12:53;95161.72;;;10.29;nan
4617;BME280;2321;42.704;23.384;2023-04-30T03:15:20;95171.56;;;10.28;nan
4617;BME280;2321;42.704;23.384;2023-04-30T03:17:47;95165.00;;;10.31;nan
4617;BME280;2321;42.704;23.384;2023-04-30T03:20:13;95173.63;;;10.33;nan
4617;BME280;2321;42.704;23.384;2023-04-30T03:22:40;95170.34;;;10.31;nan
4617;BME280;2321;42.704;23.384;2023-04-30T03:25:09;95167.06;;;10.29;nan
4617;BME280;2321;42.704;23.384;2023-04-30T03:27:36;95169.31;;;10.32;nan
4617;BME280;2321;42.704;23.384;2023-04-30T03:30:04;95165.41;;;10.28;nan
4617;BME280;2321;42.704;23.384;2023-04-30T03:32:31;95172.78;;;10.26;nan
4617;BME280;2321;42.704;23.384;2023-04-30T03:34:58;95168.88;;;10.28;nan
4617;BME280;2321;42.704;23.384;2023-04-30T03:37:25;95165.63;;;10.26;nan
4617;BME280;2321;42.704;23.384;2023-04-30T03:39:52;95181.75;;;10.24;nan
4617;BME280;2321;42.704;23.384;2023-04-30T03:42:20;95177.47;;;10.23;nan
4617;BME280;2321;42.704;23.384;2023-04-30T03:44:47;95195.28;;;10.23;nan
4617;BME280;2321;42.704;23.384;2023-04-30T03:47:14;95185.47;;;10.23;nan
4617;BME280;2321;42.704;23.384;2023-04-30T03:49:41;95191.59;;;10.24;nan
4617;BME280;2321;42.704;23.384;2023-04-30T03:52:08;95198.50;;;10.18;nan
4617;BME280;2321;42.704;23.384;2023-04-30T03:54:35;95194.78;;;10.12;nan
4617;BME280;2321;42.704;23.384;2023-04-30T03:57:02;95206.47;;;10.18;nan
4617;BME280;2321;42.704;23.384;2023-04-30T03:59:31;95201.16;;;10.18;nan
4617;BME280;2321;42.704;23.384;2023-04-30T04:01:59;95200.38;;;10.18;nan
4617;BME280;2321;42.704;23.384;2023-04-30T04:04:25;95197.66;;;10.11;nan
4617;BME280;2321;42.704;23.384;2023-04-30T04:06:52;95200.31;;;10.11;nan
4617;BME280;2321;42.704;23.384;2023-04-30T04:09:19;95193.19;;;10.18;nan
4617;BME280;2321;42.704;23.384;2023-04-30T04:11:46;95200.16;;;10.19;nan
4617;BME280;2321;42.704;23.384;2023-04-30T04:14:13;95201.56;;;10.15;nan
4617;BME280;2321;42.704;23.384;2023-04-30T04:16:42;95204.47;;;10.20;nan
4617;BME280;2321;42.704;23.384;2023-04-30T04:19:09;95211.69;;;10.27;nan
4617;BME280;2321;42.704;23.384;2023-04-30T04:21:37;95199.81;;;10.29;nan
4617;BME280;2321;42.704;23.384;2023-04-30T04:24:04;95211.91;;;10.32;nan
4617;BME280;2321;42.704;23.384;2023-04-30T04:26:33;95213.34;;;10.34;nan
4617;BME280;2321;42.704;23.384;2023-04-30T04:29:00;95202.91;;;10.33;nan
4617;BME280;2321;42.704;23.384;2023-04-30T04:31:27;95211.31;;;10.37;nan
4617;BME280;2321;42.704;23.384;2023-04-30T04:33:57;95204.41;;;10.42;nan
4617;BME280;2321;42.704;23.384;2023-04-30T04:36:24;95212.41;;;10.49;nan
4617;BME280;2321;42.704;23.384;2023-04-30T04:38:53;95208.16;;;10.55;nan
4617;BME280;2321;42.704;23.384;2023-04-30T04:41:20;95215.97;;;10.56;nan
4617;BME280;2321;42.704;23.384;2023-04-30T04:43:47;95214.34;;;10.62;nan
4617;BME280;2321;42.704;23.384;2023-04-30T04:46:14;95217.25;;;10.67;nan
4617;BME280;2321;42.704;23.384;2023-04-30T04:48:41;95217.50;;;10.73;nan
4617;BME280;2321;42.704;23.384;2023-04-30T04:51:10;95224.69;;;10.79;nan
4617;BME280;2321;42.704;23.384;2023-04-30T04:53:37;95229.22;;;10.85;nan
4617;BME280;2321;42.704;23.384;2023-04-30T04:56:04;95225.53;;;10.86;nan
4617;BME280;2321;42.704;23.384;2023-04-30T04:58:31;95232.50;;;10.87;nan
4617;BME280;2321;42.704;23.384;2023-04-30T05:00:58;95238.66;;;10.95;nan
4617;BME280;2321;42.704;23.384;2023-04-30T05:03:27;95239.91;;;10.99;nan
4617;BME280;2321;42.704;23.384;2023-04-30T05:05:54;95238.50;;;11.03;nan
4617;BME280;2321;42.704;23.384;2023-04-30T05:08:23;95239.75;;;11.00;nan
4617;BME280;2321;42.704;23.384;2023-04-30T05:10:50;95237.06;;;11.00;nan
4617;BME280;2321;42.704;23.384;2023-04-30T05:13:16;95233.59;;;11.00;nan
4617;BME280;2321;42.704;23.384;2023-04-30T05:15:43;95247.34;;;11.10;nan
4617;BME280;2321;42.704;23.384;2023-04-30T05:18:10;95235.28;;;11.15;nan
4617;BME280;2321;42.704;23.384;2023-04-30T05:20:37;95240.81;;;11.20;nan
4617;BME280;2321;42.704;23.384;2023-04-30T05:23:04;95235.72;;;11.25;nan
4617;BME280;2321;42.704;23.384;2023-04-30T05:25:32;95241.25;;;11.30;nan
4617;BME280;2321;42.704;23.384;2023-04-30T05:27:59;95242.72;;;11.33;nan
4617;BME280;2321;42.704;23.384;2023-04-30T05:30:26;95243.31;;;11.35;nan
4617;BME280;2321;42.704;23.384;2023-04-30T05:32:53;95240.47;;;11.37;nan
4617;BME280;2321;42.704;23.384;2023-04-30T05:35:20;95241.28;;;11.37;nan
4617;BME280;2321;42.704;23.384;2023-04-30T05:37:47;95237.59;;;11.38;nan
4617;BME280;2321;42.704;23.384;2023-04-30T05:40:14;95234.09;;;11.38;nan
4617;BME280;2321;42.704;23.384;2023-04-30T05:42:42;95240.88;;;11.33;nan
4617;BME280;2321;42.704;23.384;2023-04-30T05:45:10;95238.59;;;11.30;nan
4617;BME280;2321;42.704;23.384;2023-04-30T05:47:39;95244.53;;;11.32;nan
4617;BME280;2321;42.704;23.384;2023-04-30T05:50:07;95239.84;;;11.35;nan
4617;BME280;2321;42.704;23.384;2023-04-30T05:52:34;95234.31;;;11.36;nan
4617;BME280;2321;42.704;23.384;2023-04-30T05:55:01;95230.63;;;11.37;nan
4617;BME280;2321;42.704;23.384;2023-04-30T05:57:28;95234.72;;;11.33;nan
4617;BME280;2321;42.704;23.384;2023-04-30T05:59:56;95235.47;;;11.20;nan
4617;BME280;2321;42.704;23.384;2023-04-30T06:02:23;95241.66;;;11.27;nan
4617;BME280;2321;42.704;23.384;2023-04-30T06:04:50;95243.50;;;11.27;nan
4617;BME280;2321;42.704;23.384;2023-04-30T06:07:17;95245.78;;;11.30;nan
4617;BME280;2321;42.704;23.384;2023-04-30T06:09:43;95246.63;;;11.37;nan
4617;BME280;2321;42.704;23.384;2023-04-30T06:12:10;95233.09;;;11.39;nan
4617;BME280;2321;42.704;23.384;2023-04-30T06:14:37;95243.78;;;11.52;nan
4617;BME280;2321;42.704;23.384;2023-04-30T06:17:05;95250.16;;;11.58;nan
4617;BME280;2321;42.704;23.384;2023-04-30T06:19:32;95247.28;;;11.60;nan
4617;BME280;2321;42.704;23.384;2023-04-30T06:21:59;95250.56;;;11.69;nan
4617;BME280;2321;42.704;23.384;2023-04-30T06:24:26;95258.38;;;11.70;nan
4617;BME280;2321;42.704;23.384;2023-04-30T06:26:54;95260.84;;;11.79;nan
4617;BME280;2321;42.704;23.384;2023-04-30T06:29:21;95253.44;;;11.81;nan
4617;BME280;2321;42.704;23.384;2023-04-30T06:31:48;95256.38;;;11.93;nan
4617;BME280;2321;42.704;23.384;2023-04-30T06:34:17;95256.97;;;12.02;nan
4617;BME280;2321;42.704;23.384;2023-04-30T06:36:44;95254.31;;;11.95;nan
4617;BME280;2321;42.704;23.384;2023-04-30T06:39:13;95258.81;;;12.01;nan
4617;BME280;2321;42.704;23.384;2023-04-30T06:41:40;95255.53;;;12.06;nan
4617;BME280;2321;42.704;23.384;2023-04-30T06:44:07;95262.72;;;12.12;nan
4617;BME280;2321;42.704;23.384;2023-04-30T06:46:34;95254.75;;;12.26;nan
4617;BME280;2321;42.704;23.384;2023-04-30T06:49:01;95253.69;;;12.40;nan
4617;BME280;2321;42.704;23.384;2023-04-30T06:51:29;95262.94;;;12.45;nan
4617;BME280;2321;42.704;23.384;2023-04-30T06:53:56;95255.94;;;12.57;nan
4617;BME280;2321;42.704;23.384;2023-04-30T06:56:23;95259.41;;;12.58;nan
4617;BME280;2321;42.704;23.384;2023-04-30T06:58:50;95257.75;;;12.70;nan
4617;BME280;2321;42.704;23.384;2023-04-30T07:01:17;95261.66;;;12.74;nan
4617;BME280;2321;42.704;23.384;2023-04-30T07:03:43;95252.38;;;12.84;nan
4617;BME280;2321;42.704;23.384;2023-04-30T07:06:10;95257.28;;;12.94;nan
4617;BME280;2321;42.704;23.384;2023-04-30T07:08:39;95245.75;;;13.00;nan
4617;BME280;2321;42.704;23.384;2023-04-30T07:11:06;95253.13;;;13.12;nan
4617;BME280;2321;42.704;23.384;2023-04-30T07:13:33;95263.97;;;13.17;nan
4617;BME280;2321;42.704;23.384;2023-04-30T07:15:59;95264.56;;;13.26;nan
4617;BME280;2321;42.704;23.384;2023-04-30T07:18:26;95269.88;;;13.33;nan
4617;BME280;2321;42.704;23.384;2023-04-30T07:20:53;95270.47;;;13.42;nan
4617;BME280;2321;42.704;23.384;2023-04-30T07:23:20;95275.56;;;13.50;nan
4617;BME280;2321;42.704;23.384;2023-04-30T07:25:49;95267.91;;;13.54;nan
4617;BME280;2321;42.704;23.384;2023-04-30T07:28:16;95271.81;;;13.58;nan
4617;BME280;2321;42.704;23.384;2023-04-30T07:30:42;95266.28;;;13.59;nan
4617;BME280;2321;42.704;23.384;2023-04-30T07:33:09;95265.66;;;13.64;nan
4617;BME280;2321;42.704;23.384;2023-04-30T07:35:36;95268.06;;;13.72;nan
4617;BME280;2321;42.704;23.384;2023-04-30T07:38:03;95266.59;;;13.77;nan
4617;BME280;2321;42.704;23.384;2023-04-30T07:40:30;95262.00;;;13.84;nan
4617;BME280;2321;42.704;23.384;2023-04-30T07:42:58;95260.50;;;13.95;nan
4617;BME280;2321;42.704;23.384;2023-04-30T07:45:25;95262.69;;;14.05;nan
4617;BME280;2321;42.704;23.384;2023-04-30T07:47:52;95268.81;;;14.12;nan
4617;BME280;2321;42.704;23.384;2023-04-30T07:50:19;95260.94;;;14.18;nan
4617;BME280;2321;42.704;23.384;2023-04-30T07:52:47;95267.28;;;14.23;nan
4617;BME280;2321;42.704;23.384;2023-04-30T07:55:15;95268.09;;;14.24;nan
4617;BME280;2321;42.704;23.384;2023-04-30T07:57:42;95272.75;;;14.35;nan
4617;BME280;2321;42.704;23.384;2023-04-30T08:00:11;95266.69;;;14.47;nan
4617;BME280;2321;42.704;23.384;2023-04-30T08:02:39;95260.59;;;14.58;nan
4617;BME280;2321;42.704;23.384;2023-04-30T08:05:08;95261.72;;;14.69;nan
4617;BME280;2321;42.704;23.384;2023-04-30T08:07:35;95264.47;;;14.81;nan
4617;BME280;2321;42.704;23.384;2023-04-30T08:10:02;95261.31;;;14.91;nan
4617;BME280;2321;42.704;23.384;2023-04-30T08:12:35;95275.09;;;14.95;nan
4617;BME280;2321;42.704;23.384;2023-04-30T08:15:18;95277.47;;;15.03;nan
4617;BME280;2321;42.704;23.384;2023-04-30T08:17:49;95270.19;;;15.11;nan
4617;BME280;2321;42.704;23.384;2023-04-30T08:20:17;95263.19;;;15.10;nan
4617;BME280;2321;42.704;23.384;2023-04-30T08:22:44;95272.78;;;15.18;nan
4617;BME280;2321;42.704;23.384;2023-04-30T08:25:11;95263.94;;;15.17;nan
4617;BME280;2321;42.704;23.384;2023-04-30T08:27:41;95270.69;;;15.20;nan
4617;BME280;2321;42.704;23.384;2023-04-30T08:30:10;95273.50;;;15.25;nan
4617;BME280;2321;42.704;23.384;2023-04-30T08:32:38;95265.72;;;15.23;nan
4617;BME280;2321;42.704;23.384;2023-04-30T08:35:06;95265.38;;;15.32;nan
4617;BME280;2321;42.704;23.384;2023-04-30T08:37:34;95269.28;;;15.36;nan
4617;BME280;2321;42.704;23.384;2023-04-30T08:40:01;95264.13;;;15.34;nan
4617;BME280;2321;42.704;23.384;2023-04-30T08:42:30;95259.94;;;15.39;nan
4617;BME280;2321;42.704;23.384;2023-04-30T08:45:02;95257.41;;;15.44;nan
4617;BME280;2321;42.704;23.384;2023-04-30T08:47:29;95256.69;;;15.49;nan
4617;BME280;2321;42.704;23.384;2023-04-30T08:49:58;95257.44;;;15.56;nan
4617;BME280;2321;42.704;23.384;2023-04-30T08:52:27;95254.69;;;15.63;nan
4617;BME280;2321;42.704;23.384;2023-04-30T08:54:56;95259.13;;;15.69;nan
4617;BME280;2321;42.704;23.384;2023-04-30T08:57:24;95246.56;;;15.82;nan
4617;BME280;2321;42.704;23.384;2023-04-30T08:59:52;95242.63;;;15.96;nan
4617;BME280;2321;42.704;23.384;2023-04-30T09:02:19;95247.84;;;16.22;nan
4617;BME280;2321;42.704;23.384;2023-04-30T09:04:47;95245.53;;;16.50;nan
4617;BME280;2321;42.704;23.384;2023-04-30T09:07:17;95244.56;;;16.80;nan
4617;BME280;2321;42.704;23.384;2023-04-30T09:09:44;95246.97;;;17.06;nan
4617;BME280;2321;42.704;23.384;2023-04-30T09:12:12;95237.94;;;17.24;nan
4617;BME280;2321;42.704;23.384;2023-04-30T09:14:39;95236.47;;;17.46;nan
4617;BME280;2321;42.704;23.384;2023-04-30T09:17:07;95234.06;;;17.61;nan
4617;BME280;2321;42.704;23.384;2023-04-30T09:19:34;95226.41;;;17.70;nan
4617;BME280;2321;42.704;23.384;2023-04-30T09:22:26;95221.38;;;17.91;nan
4617;BME280;2321;42.704;23.384;2023-04-30T09:24:53;95220.03;;;18.06;nan
4617;BME280;2321;42.704;23.384;2023-04-30T09:27:21;95215.59;;;18.17;nan
4617;BME280;2321;42.704;23.384;2023-04-30T09:29:48;95214.06;;;18.38;nan
4617;BME280;2321;42.704;23.384;2023-04-30T09:32:15;95215.84;;;18.50;nan
4617;BME280;2321;42.704;23.384;2023-04-30T09:34:42;95202.69;;;18.54;nan
4617;BME280;2321;42.704;23.384;2023-04-30T09:37:09;95204.94;;;18.62;nan
4617;BME280;2321;42.704;23.384;2023-04-30T09:39:48;95195.69;;;18.75;nan
4617;BME280;2321;42.704;23.384;2023-04-30T09:42:16;95193.38;;;18.84;nan
4617;BME280;2321;42.704;23.384;2023-04-30T09:44:44;95208.00;;;18.88;nan
4617;BME280;2321;42.704;23.384;2023-04-30T09:47:11;95197.03;;;18.95;nan
4617;BME280;2321;42.704;23.384;2023-04-30T09:49:40;95190.13;;;18.82;nan
4617;BME280;2321;42.704;23.384;2023-04-30T09:52:17;95202.13;;;18.74;nan
4617;BME280;2321;42.704;23.384;2023-04-30T09:54:57;95205.59;;;18.69;nan
4617;BME280;2321;42.704;23.384;2023-04-30T09:57:26;95200.94;;;18.65;nan
4617;BME280;2321;42.704;23.384;2023-04-30T09:59:57;95195.16;;;18.56;nan
4617;BME280;2321;42.704;23.384;2023-04-30T10:02:24;95184.47;;;18.44;nan
4617;BME280;2321;42.704;23.384;2023-04-30T10:04:54;95184.25;;;18.45;nan
4617;BME280;2321;42.704;23.384;2023-04-30T10:07:24;95185.63;;;18.48;nan
4617;BME280;2321;42.704;23.384;2023-04-30T10:10:01;95184.47;;;18.61;nan
4617;BME280;2321;42.704;23.384;2023-04-30T10:12:36;95183.03;;;18.76;nan
4617;BME280;2321;42.704;23.384;2023-04-30T10:15:10;95178.22;;;19.00;nan
4617;BME280;2321;42.704;23.384;2023-04-30T10:17:43;95169.94;;;19.07;nan
4617;BME280;2321;42.704;23.384;2023-04-30T10:20:13;95173.13;;;19.04;nan
4617;BME280;2321;42.704;23.384;2023-04-30T10:22:41;95176.25;;;18.95;nan
4617;BME280;2321;42.704;23.384;2023-04-30T10:25:10;95183.97;;;18.87;nan
4617;BME280;2321;42.704;23.384;2023-04-30T10:27:38;95214.75;;;18.68;nan
4617;BME280;2321;42.704;23.384;2023-04-30T10:30:06;95210.88;;;18.42;nan
4617;BME280;2321;42.704;23.384;2023-04-30T10:32:40;95213.47;;;18.19;nan
4617;BME280;2321;42.704;23.384;2023-04-30T10:35:14;95229.56;;;17.96;nan
4617;BME280;2321;42.704;23.384;2023-04-30T10:37:49;95228.19;;;17.64;nan
4617;BME280;2321;42.704;23.384;2023-04-30T10:40:45;95214.75;;;17.35;nan
4617;BME280;2321;42.704;23.384;2023-04-30T10:43:12;95221.94;;;17.05;nan
4617;BME280;2321;42.704;23.384;2023-04-30T10:45:42;95216.41;;;16.83;nan
4617;BME280;2321;42.704;23.384;2023-04-30T10:48:09;95208.22;;;16.65;nan
4617;BME280;2321;42.704;23.384;2023-04-30T10:50:40;95207.28;;;16.72;nan
4617;BME280;2321;42.704;23.384;2023-04-30T10:53:11;95200.94;;;16.90;nan
4617;BME280;2321;42.704;23.384;2023-04-30T10:55:46;95209.66;;;17.09;nan
4617;BME280;2321;42.704;23.384;2023-04-30T10:58:29;95213.03;;;17.29;nan
4617;BME280;2321;42.704;23.384;2023-04-30T11:01:01;95212.88;;;17.36;nan
4617;BME280;2321;42.704;23.384;2023-04-30T11:03:29;95205.25;;;17.45;nan
4617;BME280;2321;42.704;23.384;2023-04-30T11:05:58;95210.41;;;17.63;nan
4617;BME280;2321;42.704;23.384;2023-04-30T11:08:32;95195.59;;;17.95;nan
4617;BME280;2321;42.704;23.384;2023-04-30T11:11:01;95196.44;;;18.31;nan
4617;BME280;2321;42.704;23.384;2023-04-30T11:13:38;95201.69;;;18.60;nan
4617;BME280;2321;42.704;23.384;2023-04-30T11:16:06;95202.09;;;18.69;nan
4617;BME280;2321;42.704;23.384;2023-04-30T11:18:33;95209.63;;;18.67;nan
4617;BME280;2321;42.704;23.384;2023-04-30T11:21:00;95207.41;;;18.64;nan
4617;BME280;2321;42.704;23.384;2023-04-30T11:23:28;95207.91;;;18.60;nan
4617;BME280;2321;42.704;23.384;2023-04-30T11:25:59;95210.53;;;18.38;nan
4617;BME280;2321;42.704;23.384;2023-04-30T11:28:28;95208.06;;;18.19;nan
4617;BME280;2321;42.704;23.384;2023-04-30T11:30:58;95208.56;;;17.99;nan
4617;BME280;2321;42.704;23.384;2023-04-30T11:33:27;95214.75;;;17.64;nan
4617;BME280;2321;42.704;23.384;2023-04-30T11:35:55;95211.91;;;17.42;nan
4617;BME280;2321;42.704;23.384;2023-04-30T11:38:26;95211.63;;;17.14;nan
4617;BME280;2321;42.704;23.384;2023-04-30T11:40:54;95204.22;;;16.92;nan
4617;BME280;2321;42.704;23.384;2023-04-30T11:43:22;95196.53;;;16.72;nan
4617;BME280;2321;42.704;23.384;2023-04-30T11:46:05;95203.78;;;16.47;nan
4617;BME280;2321;42.704;23.384;2023-04-30T11:48:34;95211.06;;;16.47;nan
4617;BME280;2321;42.704;23.384;2023-04-30T11:51:19;95204.25;;;16.44;nan
4617;BME280;2321;42.704;23.384;2023-04-30T11:53:47;95189.31;;;16.48;nan
4617;BME280;2321;42.704;23.384;2023-04-30T11:56:17;95197.16;;;16.62;nan
4617;BME280;2321;42.704;23.384;2023-04-30T11:58:46;95186.38;;;16.74;nan
4617;BME280;2321;42.704;23.384;2023-04-30T12:01:15;95191.25;;;16.89;nan
4617;BME280;2321;42.704;23.384;2023-04-30T12:03:43;95187.44;;;17.02;nan
4617;BME280;2321;42.704;23.384;2023-04-30T12:06:10;95192.31;;;17.17;nan
4617;BME280;2321;42.704;23.384;2023-04-30T12:08:40;95192.81;;;17.26;nan
4617;BME280;2321;42.704;23.384;2023-04-30T12:11:18;95202.25;;;17.29;nan
4617;BME280;2321;42.704;23.384;2023-04-30T12:13:49;95193.59;;;17.27;nan
4617;BME280;2321;42.704;23.384;2023-04-30T12:16:17;95192.81;;;17.26;nan
4617;BME280;2321;42.704;23.384;2023-04-30T12:18:45;95204.28;;;17.22;nan
4617;BME280;2321;42.704;23.384;2023-04-30T12:21:12;95208.94;;;17.14;nan
4617;BME280;2321;42.704;23.384;2023-04-30T12:23:39;95227.78;;;17.02;nan
4617;BME280;2321;42.704;23.384;2023-04-30T12:26:06;95219.09;;;16.83;nan
4617;BME280;2321;42.704;23.384;2023-04-30T12:28:33;95217.25;;;16.71;nan
4617;BME280;2321;42.704;23.384;2023-04-30T12:31:00;95204.97;;;16.63;nan
4617;BME280;2321;42.704;23.384;2023-04-30T12:33:30;95201.81;;;16.42;nan
4617;BME280;2321;42.704;23.384;2023-04-30T12:35:57;95202.75;;;16.36;nan
4617;BME280;2321;42.704;23.384;2023-04-30T12:38:24;95206.63;;;16.28;nan
4617;BME280;2321;42.704;23.384;2023-04-30T12:40:51;95199.59;;;16.27;nan
4617;BME280;2321;42.704;23.384;2023-04-30T12:43:18;95202.88;;;16.29;nan
4617;BME280;2321;42.704;23.384;2023-04-30T12:45:46;95198.69;;;16.33;nan
4617;BME280;2321;42.704;23.384;2023-04-30T12:48:16;95203.69;;;16.42;nan
4617;BME280;2321;42.704;23.384;2023-04-30T12:50:51;95202.53;;;16.50;nan
4617;BME280;2321;42.704;23.384;2023-04-30T12:53:18;95179.97;;;16.39;nan
4617;BME280;2321;42.704;23.384;2023-04-30T12:56:07;95200.16;;;16.65;nan
4617;BME280;2321;42.704;23.384;2023-04-30T12:58:35;95195.94;;;16.70;nan
4617;BME280;2321;42.704;23.384;2023-04-30T13:01:01;95190.06;;;16.85;nan
4617;BME280;2321;42.704;23.384;2023-04-30T13:03:28;95188.19;;;16.97;nan
4617;BME280;2321;42.704;23.384;2023-04-30T13:05:56;95191.28;;;17.18;nan
4617;BME280;2321;42.704;23.384;2023-04-30T13:08:26;95189.94;;;17.33;nan
4617;BME280;2321;42.704;23.384;2023-04-30T13:10:53;95188.75;;;17.41;nan
4617;BME280;2321;42.704;23.384;2023-04-30T13:13:20;95184.69;;;17.38;nan
4617;BME280;2321;42.704;23.384;2023-04-30T13:15:47;95187.47;;;17.44;nan
4617;BME280;2321;42.704;23.384;2023-04-30T13:18:13;95174.09;;;17.49;nan
4617;BME280;2321;42.704;23.384;2023-04-30T13:20:41;95165.78;;;17.50;nan
4617;BME280;2321;42.704;23.384;2023-04-30T13:23:10;95156.41;;;17.53;nan
4617;BME280;2321;42.704;23.384;2023-04-30T13:25:38;95155.03;;;17.50;nan
4617;BME280;2321;42.704;23.384;2023-04-30T13:28:06;95153.03;;;17.46;nan
4617;BME280;2321;42.704;23.384;2023-04-30T13:30:33;95147.50;;;17.52;nan
4617;BME280;2321;42.704;23.384;2023-04-30T13:33:00;95156.81;;;17.62;nan
4617;BME280;2321;42.704;23.384;2023-04-30T13:35:29;95156.06;;;17.67;nan
4617;BME280;2321;42.704;23.384;2023-04-30T13:37:58;95159.44;;;17.74;nan
4617;BME280;2321;42.704;23.384;2023-04-30T13:40:26;95155.78;;;17.80;nan
4617;BME280;2321;42.704;23.384;2023-04-30T13:42:53;95159.91;;;17.88;nan